sensor_id;sensor_type;location;lat;lon;timestamp;P1;durP1;ratioP1;P2;durP2;ratioP2
4527;SDS011;62320;51.520;6.818;2022-12-20T00:02:42;6.03;;;1.70;;
4527;SDS011;62320;51.520;6.818;2022-12-20T00:12:43;6.33;;;2.63;;
4527;SDS011;62320;51.520;6.818;2022-12-20T00:22:44;5.60;;;2.10;;
4527;SDS011;62320;51.520;6.818;2022-12-20T00:32:46;5.90;;;2.78;;
4527;SDS011;62320;51.520;6.818;2022-12-20T00:42:47;5.97;;;2.20;;
4527;SDS011;62320;51.520;6.818;2022-12-20T00:52:49;4.83;;;2.00;;
4527;SDS011;62320;51.520;6.818;2022-12-20T01:02:50;6.55;;;2.30;;
4527;SDS011;62320;51.520;6.818;2022-12-20T01:12:52;6.07;;;2.23;;
4527;SDS011;62320;51.520;6.818;2022-12-20T01:22:54;5.97;;;1.87;;
4527;SDS011;62320;51.520;6.818;2022-12-20T01:32:56;5.25;;;2.00;;
4527;SDS011;62320;51.520;6.818;2022-12-20T01:42:57;5.40;;;1.93;;
4527;SDS011;62320;51.520;6.818;2022-12-20T01:52:58;5.03;;;1.70;;
4527;SDS011;62320;51.520;6.818;2022-12-20T02:03:03;5.80;;;2.00;;
4527;SDS011;62320;51.520;6.818;2022-12-20T02:13:11;5.68;;;2.00;;
4527;SDS011;62320;51.520;6.818;2022-12-20T02:33:41;6.33;;;2.20;;
4527;SDS011;62320;51.520;6.818;2022-12-20T02:43:47;5.03;;;2.08;;
4527;SDS011;62320;51.520;6.818;2022-12-20T02:54:11;5.57;;;2.20;;
4527;SDS011;62320;51.520;6.818;2022-12-20T03:04:13;5.87;;;2.40;;
4527;SDS011;62320;51.520;6.818;2022-12-20T03:14:17;6.22;;;2.25;;
4527;SDS011;62320;51.520;6.818;2022-12-20T03:24:18;7.33;;;2.83;;
4527;SDS011;62320;51.520;6.818;2022-12-20T03:34:19;6.73;;;3.20;;
4527;SDS011;62320;51.520;6.818;2022-12-20T03:44:21;7.53;;;3.47;;
4527;SDS011;62320;51.520;6.818;2022-12-20T03:54:23;7.65;;;3.85;;
4527;SDS011;62320;51.520;6.818;2022-12-20T04:04:24;9.30;;;3.87;;
4527;SDS011;62320;51.520;6.818;2022-12-20T04:14:25;9.60;;;3.90;;
4527;SDS011;62320;51.520;6.818;2022-12-20T04:24:27;9.60;;;4.40;;
4527;SDS011;62320;51.520;6.818;2022-12-20T04:34:28;12.50;;;4.80;;
4527;SDS011;62320;51.520;6.818;2022-12-20T04:44:30;11.93;;;4.40;;
4527;SDS011;62320;51.520;6.818;2022-12-20T04:54:32;11.13;;;4.32;;
4527;SDS011;62320;51.520;6.818;2022-12-20T05:04:33;9.17;;;4.03;;
4527;SDS011;62320;51.520;6.818;2022-12-20T05:14:37;11.33;;;4.37;;
4527;SDS011;62320;51.520;6.818;2022-12-20T05:24:39;8.95;;;4.20;;
4527;SDS011;62320;51.520;6.818;2022-12-20T05:34:59;9.77;;;4.20;;
4527;SDS011;62320;51.520;6.818;2022-12-20T05:45:01;9.60;;;4.20;;
4527;SDS011;62320;51.520;6.818;2022-12-20T05:55:03;8.37;;;3.77;;
4527;SDS011;62320;51.520;6.818;2022-12-20T06:05:04;8.32;;;3.90;;
4527;SDS011;62320;51.520;6.818;2022-12-20T06:15:06;9.50;;;4.60;;
4527;SDS011;62320;51.520;6.818;2022-12-20T06:25:09;8.67;;;4.20;;
4527;SDS011;62320;51.520;6.818;2022-12-20T06:35:12;8.82;;;4.20;;
4527;SDS011;62320;51.520;6.818;2022-12-20T06:45:15;10.17;;;3.43;;
4527;SDS011;62320;51.520;6.818;2022-12-20T06:55:16;8.00;;;3.33;;
4527;SDS011;62320;51.520;6.818;2022-12-20T07:05:17;6.82;;;3.30;;
4527;SDS011;62320;51.520;6.818;2022-12-20T07:15:19;7.47;;;2.95;;
4527;SDS011;62320;51.520;6.818;2022-12-20T07:25:22;7.00;;;3.60;;
4527;SDS011;62320;51.520;6.818;2022-12-20T07:35:24;6.97;;;3.30;;
4527;SDS011;62320;51.520;6.818;2022-12-20T07:45:26;7.90;;;3.47;;
4527;SDS011;62320;51.520;6.818;2022-12-20T07:55:28;7.47;;;3.20;;
4527;SDS011;62320;51.520;6.818;2022-12-20T08:05:31;7.53;;;3.00;;
4527;SDS011;62320;51.520;6.818;2022-12-20T08:15:34;7.65;;;3.40;;
4527;SDS011;62320;51.520;6.818;2022-12-20T08:25:36;7.03;;;2.83;;
4527;SDS011;62320;51.520;6.818;2022-12-20T08:35:42;7.83;;;2.73;;
4527;SDS011;62320;51.520;6.818;2022-12-20T08:45:43;6.85;;;3.03;;
4527;SDS011;62320;51.520;6.818;2022-12-20T08:55:45;7.40;;;3.28;;
4527;SDS011;62320;51.520;6.818;2022-12-20T09:05:46;6.80;;;3.37;;
4527;SDS011;62320;51.520;6.818;2022-12-20T09:15:47;5.87;;;2.80;;
4527;SDS011;62320;51.520;6.818;2022-12-20T09:25:49;6.57;;;2.53;;
4527;SDS011;62320;51.520;6.818;2022-12-20T09:35:54;6.53;;;2.87;;
4527;SDS011;62320;51.520;6.818;2022-12-20T09:45:56;7.03;;;2.87;;
4527;SDS011;62320;51.520;6.818;2022-12-20T09:56:02;6.18;;;2.80;;
4527;SDS011;62320;51.520;6.818;2022-12-20T10:06:16;8.23;;;2.70;;
4527;SDS011;62320;51.520;6.818;2022-12-20T10:16:45;6.93;;;3.33;;
4527;SDS011;62320;51.520;6.818;2022-12-20T10:26:57;6.80;;;2.80;;
4527;SDS011;62320;51.520;6.818;2022-12-20T10:37:14;6.97;;;2.90;;
4527;SDS011;62320;51.520;6.818;2022-12-20T10:47:23;6.80;;;2.97;;
4527;SDS011;62320;51.520;6.818;2022-12-20T10:57:39;6.93;;;3.03;;
4527;SDS011;62320;51.520;6.818;2022-12-20T11:18:28;7.60;;;3.30;;
4527;SDS011;62320;51.520;6.818;2022-12-20T11:49:39;6.77;;;3.00;;
4527;SDS011;62320;51.520;6.818;2022-12-20T11:59:49;7.27;;;3.20;;
4527;SDS011;62320;51.520;6.818;2022-12-20T12:10:00;6.22;;;2.75;;
4527;SDS011;62320;51.520;6.818;2022-12-20T12:30:36;7.37;;;3.17;;
4527;SDS011;62320;51.520;6.818;2022-12-20T12:41:29;5.70;;;2.70;;
4527;SDS011;62320;51.520;6.818;2022-12-20T12:51:29;8.18;;;2.90;;
4527;SDS011;62320;51.520;6.818;2022-12-20T13:11:53;9.57;;;3.80;;
4527;SDS011;62320;51.520;6.818;2022-12-20T13:33:02;10.33;;;3.90;;
4527;SDS011;62320;51.520;6.818;2022-12-20T13:42:44;7.80;;;3.10;;
4527;SDS011;62320;51.520;6.818;2022-12-20T13:52:47;7.20;;;3.10;;
4527;SDS011;62320;51.520;6.818;2022-12-20T14:02:48;10.93;;;3.80;;
4527;SDS011;62320;51.520;6.818;2022-12-20T14:12:51;8.67;;;3.90;;
4527;SDS011;62320;51.520;6.818;2022-12-20T14:23:03;9.10;;;4.10;;
4527;SDS011;62320;51.520;6.818;2022-12-20T14:43:33;10.03;;;4.60;;
4527;SDS011;62320;51.520;6.818;2022-12-20T14:53:36;11.27;;;4.00;;
4527;SDS011;62320;51.520;6.818;2022-12-20T15:03:52;7.85;;;3.60;;
4527;SDS011;62320;51.520;6.818;2022-12-20T15:13:56;11.60;;;4.30;;
4527;SDS011;62320;51.520;6.818;2022-12-20T15:23:59;9.17;;;3.93;;
4527;SDS011;62320;51.520;6.818;2022-12-20T15:34:03;12.13;;;4.45;;
4527;SDS011;62320;51.520;6.818;2022-12-20T15:44:15;12.30;;;4.40;;
4527;SDS011;62320;51.520;6.818;2022-12-20T15:54:33;12.67;;;3.80;;
4527;SDS011;62320;51.520;6.818;2022-12-20T16:04:36;11.53;;;3.93;;
4527;SDS011;62320;51.520;6.818;2022-12-20T16:14:38;12.15;;;4.30;;
4527;SDS011;62320;51.520;6.818;2022-12-20T16:24:39;10.83;;;4.43;;
4527;SDS011;62320;51.520;6.818;2022-12-20T16:34:41;11.60;;;4.50;;
4527;SDS011;62320;51.520;6.818;2022-12-20T16:44:43;14.57;;;5.97;;
4527;SDS011;62320;51.520;6.818;2022-12-20T16:54:46;11.67;;;4.17;;
4527;SDS011;62320;51.520;6.818;2022-12-20T17:04:47;11.40;;;4.87;;
4527;SDS011;62320;51.520;6.818;2022-12-20T17:14:49;10.75;;;4.97;;
4527;SDS011;62320;51.520;6.818;2022-12-20T17:24:50;7.63;;;3.88;;
4527;SDS011;62320;51.520;6.818;2022-12-20T17:34:52;10.77;;;4.50;;
4527;SDS011;62320;51.520;6.818;2022-12-20T17:44:54;14.23;;;4.80;;
4527;SDS011;62320;51.520;6.818;2022-12-20T17:54:56;10.10;;;4.50;;
4527;SDS011;62320;51.520;6.818;2022-12-20T18:04:57;13.80;;;5.30;;
4527;SDS011;62320;51.520;6.818;2022-12-20T18:14:59;12.10;;;5.40;;
4527;SDS011;62320;51.520;6.818;2022-12-20T18:25:01;16.23;;;8.90;;
4527;SDS011;62320;51.520;6.818;2022-12-20T18:35:09;11.83;;;6.40;;
4527;SDS011;62320;51.520;6.818;2022-12-20T18:45:10;12.93;;;5.97;;
4527;SDS011;62320;51.520;6.818;2022-12-20T18:55:12;14.57;;;5.88;;
4527;SDS011;62320;51.520;6.818;2022-12-20T19:05:14;17.75;;;7.80;;
4527;SDS011;62320;51.520;6.818;2022-12-20T19:15:16;14.30;;;6.90;;
4527;SDS011;62320;51.520;6.818;2022-12-20T19:25:17;15.93;;;6.80;;
4527;SDS011;62320;51.520;6.818;2022-12-20T19:35:18;12.98;;;6.00;;
4527;SDS011;62320;51.520;6.818;2022-12-20T19:45:40;15.50;;;7.10;;
4527;SDS011;62320;51.520;6.818;2022-12-20T19:55:50;17.00;;;7.40;;
4527;SDS011;62320;51.520;6.818;2022-12-20T20:05:53;13.80;;;6.68;;
4527;SDS011;62320;51.520;6.818;2022-12-20T20:15:56;15.50;;;7.60;;
4527;SDS011;62320;51.520;6.818;2022-12-20T20:25:59;17.70;;;7.77;;
4527;SDS011;62320;51.520;6.818;2022-12-20T20:36:01;17.35;;;8.50;;
4527;SDS011;62320;51.520;6.818;2022-12-20T20:46:04;21.55;;;9.82;;
4527;SDS011;62320;51.520;6.818;2022-12-20T20:56:07;18.50;;;8.83;;
4527;SDS011;62320;51.520;6.818;2022-12-20T21:06:10;18.60;;;9.27;;
4527;SDS011;62320;51.520;6.818;2022-12-20T21:16:31;21.23;;;9.30;;
4527;SDS011;62320;51.520;6.818;2022-12-20T21:26:33;17.83;;;9.50;;
4527;SDS011;62320;51.520;6.818;2022-12-20T21:36:34;22.63;;;10.20;;
4527;SDS011;62320;51.520;6.818;2022-12-20T21:46:36;20.52;;;10.43;;
4527;SDS011;62320;51.520;6.818;2022-12-20T21:56:37;19.10;;;9.73;;
4527;SDS011;62320;51.520;6.818;2022-12-20T22:06:39;29.73;;;11.80;;
4527;SDS011;62320;51.520;6.818;2022-12-20T22:16:42;19.60;;;10.15;;
4527;SDS011;62320;51.520;6.818;2022-12-20T22:26:44;21.27;;;10.25;;
4527;SDS011;62320;51.520;6.818;2022-12-20T22:36:45;21.47;;;10.33;;
4527;SDS011;62320;51.520;6.818;2022-12-20T22:46:47;22.57;;;10.67;;
4527;SDS011;62320;51.520;6.818;2022-12-20T22:56:48;25.15;;;11.48;;
4527;SDS011;62320;51.520;6.818;2022-12-20T23:06:49;24.27;;;10.10;;
4527;SDS011;62320;51.520;6.818;2022-12-20T23:16:51;23.50;;;10.40;;
4527;SDS011;62320;51.520;6.818;2022-12-20T23:26:52;25.15;;;10.30;;
4527;SDS011;62320;51.520;6.818;2022-12-20T23:36:54;25.43;;;11.27;;
4527;SDS011;62320;51.520;6.818;2022-12-20T23:46:55;29.33;;;12.57;;
4527;SDS011;62320;51.520;6.818;2022-12-20T23:56:56;25.40;;;11.05;;
